Time;durP1;ratioP1;P1;durP2;ratioP2;P2;SDS_P1;SDS_P2;PMS_P1;PMS_P2;Temp;Humidity;BMP_temperature;BMP_pressure;BME280_temperature;BME280_humidity;BME280_pressure;Samples;Min_cycle;Max_cycle;Signal;HPM_P1;HPM_P2
2022/09/22 00:01:54;;;;;;;0.00;0.00;;;17.40;71.00;;;;;;5028442;28;20474;-74
2022/09/22 00:04:20;;;;;;;0.00;0.00;;;17.40;71.00;;;;;;5009966;28;20041;-74
2022/09/22 00:06:47;;;;;;;0.00;0.00;;;17.40;71.00;;;;;;5027818;28;20030;-74
2022/09/22 00:09:16;;;;;;;0.00;0.00;;;17.40;71.00;;;;;;5027568;28;20375;-75
2022/09/22 00:11:44;;;;;;;0.00;0.00;;;17.40;71.00;;;;;;5027492;28;20033;-74
2022/09/22 00:14:21;;;;;;;0.00;0.00;;;17.40;71.00;;;;;;5027884;28;20025;-74
2022/09/22 00:16:50;;;;;;;0.00;0.00;;;17.40;71.10;;;;;;5026235;28;20022;-74
2022/09/22 00:19:24;;;;;;;0.00;0.00;;;17.40;71.00;;;;;;5026107;28;20033;-74
2022/09/22 00:21:51;;;;;;;0.00;0.00;;;17.40;71.10;;;;;;5027448;28;20540;-74
2022/09/22 00:24:18;;;;;;;0.00;0.00;;;17.40;71.60;;;;;;5026025;28;20087;-74
2022/09/22 00:26:44;;;;;;;0.00;0.00;;;17.40;71.10;;;;;;5027311;28;20029;-74
2022/09/22 00:29:10;;;;;;;0.00;0.00;;;17.40;71.10;;;;;;5026180;28;20474;-74
2022/09/22 00:31:38;;;;;;;0.00;0.00;;;17.40;71.10;;;;;;5026131;28;20472;-74
2022/09/22 00:34:05;;;;;;;0.00;0.00;;;17.40;71.10;;;;;;5026014;28;20401;-74
2022/09/22 00:36:30;;;;;;;0.00;0.00;;;17.40;71.10;;;;;;5026054;28;20022;-74
2022/09/22 00:38:57;;;;;;;0.20;0.08;;;17.40;71.10;;;;;;5009885;28;20124;-74
2022/09/22 00:41:33;;;;;;;0.00;0.00;;;17.40;71.10;;;;;;5027256;28;20092;-74
2022/09/22 00:44:20;;;;;;;0.00;0.00;;;17.40;71.10;;;;;;5025878;28;20029;-73
2022/09/22 00:47:09;;;;;;;0.00;0.00;;;17.40;71.10;;;;;;5025895;28;20029;-74
2022/09/22 00:49:44;;;;;;;0.00;0.00;;;17.40;71.20;;;;;;5021810;28;20450;-74
2022/09/22 00:52:13;;;;;;;0.00;0.00;;;17.50;71.20;;;;;;5026114;28;20033;-74
2022/09/22 00:54:39;;;;;;;0.00;0.00;;;17.50;71.20;;;;;;5027095;28;20117;-73
2022/09/22 00:57:12;;;;;;;0.00;0.00;;;17.40;71.20;;;;;;5027174;28;20104;-74
2022/09/22 00:59:38;;;;;;;0.00;0.00;;;17.50;71.30;;;;;;5028222;28;20212;-74
2022/09/22 01:02:05;;;;;;;0.00;0.00;;;17.50;71.20;;;;;;5029565;28;20371;-74
2022/09/22 01:04:31;;;;;;;0.00;0.00;;;17.50;71.20;;;;;;5029626;28;20025;-74
2022/09/22 01:06:58;;;;;;;0.00;0.00;;;17.50;71.30;;;;;;5029680;28;20029;-73
2022/09/22 01:09:24;;;;;;;0.00;0.00;;;17.50;71.30;;;;;;5029697;28;20037;-74
2022/09/22 01:11:50;;;;;;;0.00;0.00;;;17.50;71.30;;;;;;5029578;28;20032;-75
2022/09/22 01:14:41;;;;;;;0.00;0.00;;;17.50;71.30;;;;;;5029494;28;20108;-74
2022/09/22 01:17:22;;;;;;;0.00;0.00;;;17.50;71.30;;;;;;5030607;28;20071;-74
2022/09/22 01:20:05;;;;;;;0.00;0.00;;;17.50;71.30;;;;;;5029084;28;20031;-74
2022/09/22 01:23:06;;;;;;;0.00;0.00;;;17.50;71.30;;;;;;5029167;28;20025;-74
2022/09/22 01:26:07;;;;;;;0.00;0.00;;;17.60;71.30;;;;;;5007566;28;20102;-75
2022/09/22 01:28:38;;;;;;;0.00;0.00;;;17.50;71.30;;;;;;5022959;28;20042;-74
2022/09/22 01:31:15;;;;;;;0.00;0.00;;;17.50;71.30;;;;;;5029057;28;20441;-75
2022/09/22 01:33:52;;;;;;;0.00;0.00;;;17.50;71.30;;;;;;5030295;28;20068;-74
2022/09/22 01:36:34;;;;;;;0.00;0.00;;;17.50;71.30;;;;;;5030262;28;20083;-75
2022/09/22 01:39:21;;;;;;;0.00;0.00;;;17.60;71.40;;;;;;5029118;28;20048;-75
2022/09/22 01:41:50;;;;;;;0.00;0.00;;;17.60;71.40;;;;;;5030269;28;20029;-75
2022/09/22 01:44:48;;;;;;;0.00;0.00;;;17.60;71.40;;;;;;5030158;28;20382;-75
2022/09/22 01:47:19;;;;;;;0.00;0.00;;;17.60;71.40;;;;;;5030147;28;20092;-75
2022/09/22 01:49:52;;;;;;;0.00;0.00;;;17.60;71.30;;;;;;5028776;28;20029;-74
2022/09/22 01:52:23;;;;;;;0.00;0.00;;;17.50;71.30;;;;;;5030022;28;20072;-75
2022/09/22 01:55:04;;;;;;;0.00;0.00;;;17.50;71.30;;;;;;5029765;28;20105;-75
2022/09/22 01:57:37;;;;;;;0.00;0.00;;;17.50;71.30;;;;;;5029996;28;20027;-74
2022/09/22 02:00:06;;;;;;;0.00;0.00;;;17.40;71.30;;;;;;5028659;28;20450;-75
2022/09/22 02:02:41;;;;;;;0.00;0.00;;;17.40;71.40;;;;;;5029844;28;20017;-75
2022/09/22 02:05:28;;;;;;;0.00;0.00;;;17.40;71.40;;;;;;5028617;28;20412;-75
2022/09/22 02:07:55;;;;;;;;;;;17.40;71.40;;;;;;5030562;28;20382;-75
2022/09/22 02:10:27;;;;;;;0.00;0.00;;;17.30;71.30;;;;;;5028223;28;20330;-75
2022/09/22 02:12:54;;;;;;;0.00;0.00;;;17.30;71.20;;;;;;5029012;28;20026;-75
2022/09/22 02:18:17;;;;;;;0.00;0.00;;;17.10;71.20;;;;;;5028848;28;20340;-75
2022/09/22 02:20:43;;;;;;;0.00;0.00;;;17.00;71.20;;;;;;5029571;28;20378;-75
2022/09/22 02:23:09;;;;;;;0.00;0.00;;;17.00;71.30;;;;;;5027980;28;20033;-75
2022/09/22 02:25:37;;;;;;;0.00;0.00;;;16.90;71.30;;;;;;5029452;28;20061;-75
2022/09/22 02:28:04;;;;;;;0.00;0.00;;;16.90;71.40;;;;;;5028005;28;20569;-75
2022/09/22 02:30:30;;;;;;;0.00;0.00;;;16.80;71.40;;;;;;5028086;28;20244;-75
2022/09/22 02:32:57;;;;;;;0.10;0.10;;;16.80;71.40;;;;;;5027884;28;20033;-75
2022/09/22 02:35:28;;;;;;;0.10;0.10;;;16.80;71.40;;;;;;5011573;28;20030;-76
2022/09/22 02:37:59;;;;;;;0.10;0.10;;;16.80;71.40;;;;;;5029453;28;20075;-76
2022/09/22 02:40:37;;;;;;;0.00;0.00;;;16.80;71.40;;;;;;5027760;28;20120;-76
2022/09/22 02:43:06;;;;;;;0.10;0.10;;;16.70;71.40;;;;;;5029045;28;20598;-76
2022/09/22 02:45:52;;;;;;;0.10;0.10;;;16.70;71.50;;;;;;5029043;28;20045;-75
2022/09/22 02:48:26;;;;;;;0.10;0.10;;;16.70;71.50;;;;;;5029055;28;20030;-75
2022/09/22 02:50:53;;;;;;;0.13;0.13;;;16.70;71.40;;;;;;5027283;28;20284;-75
2022/09/22 02:53:19;;;;;;;0.20;0.20;;;16.70;71.50;;;;;;5029165;28;20029;-76
2022/09/22 02:55:46;;;;;;;0.20;0.20;;;16.70;71.40;;;;;;5027413;28;20036;-76
2022/09/22 02:58:15;;;;;;;0.22;0.22;;;16.70;71.90;;;;;;5011064;28;20037;-75
2022/09/22 03:00:42;;;;;;;0.30;0.30;;;16.70;71.50;;;;;;5027670;28;20037;-75
2022/09/22 03:03:10;;;;;;;1.00;0.60;;;16.70;71.50;;;;;;5028637;28;20028;-76
2022/09/22 03:05:36;;;;;;;0.30;0.30;;;16.70;71.50;;;;;;5027281;28;20029;-76
2022/09/22 03:08:03;;;;;;;0.30;0.30;;;16.70;71.50;;;;;;5027207;28;20029;-75
2022/09/22 03:10:29;;;;;;;0.28;0.28;;;16.70;71.50;;;;;;5027181;28;20083;-75
2022/09/22 03:12:56;;;;;;;0.32;0.32;;;16.70;71.50;;;;;;5028276;28;20033;-75
2022/09/22 03:15:22;;;;;;;0.40;0.40;;;16.70;71.50;;;;;;5010837;28;20029;-75
2022/09/22 03:17:48;;;;;;;0.50;0.50;;;16.70;71.50;;;;;;5028203;28;20113;-76
2022/09/22 03:20:14;;;;;;;0.40;0.40;;;16.60;71.50;;;;;;5026927;28;20545;-76
2022/09/22 03:22:41;;;;;;;0.30;0.30;;;16.70;71.60;;;;;;5026903;28;20038;-76
2022/09/22 03:25:09;;;;;;;0.30;0.30;;;16.70;71.60;;;;;;5026891;28;20053;-76
2022/09/22 03:27:35;;;;;;;0.40;0.40;;;16.70;71.60;;;;;;5028248;28;20029;-75
2022/09/22 03:30:03;;;;;;;0.30;0.30;;;16.60;71.60;;;;;;5010484;28;20383;-75
2022/09/22 03:32:29;;;;;;;0.30;0.30;;;16.70;71.60;;;;;;5026759;28;20105;-76
2022/09/22 03:34:56;;;;;;;0.30;0.30;;;16.70;71.60;;;;;;5026716;28;20030;-76
2022/09/22 03:37:21;;;;;;;0.38;0.38;;;16.70;71.70;;;;;;5026868;28;20470;-76
2022/09/22 03:39:47;;;;;;;0.30;0.30;;;16.70;71.70;;;;;;4994053;28;20033;-76
2022/09/22 03:42:13;;;;;;;0.43;0.43;;;16.70;71.70;;;;;;5026681;28;20389;-76
2022/09/22 03:44:38;;;;;;;0.40;0.40;;;16.70;71.60;;;;;;5028278;28;20048;-75
2022/09/22 03:47:04;;;;;;;0.38;0.38;;;16.70;71.60;;;;;;5026655;28;20439;-76
2022/09/22 03:49:30;;;;;;;0.35;0.35;;;16.70;71.70;;;;;;5010101;28;20033;-76
2022/09/22 03:51:56;;;;;;;0.40;0.40;;;16.70;71.70;;;;;;5026253;28;20050;-76
2022/09/22 03:54:22;;;;;;;0.50;0.50;;;16.70;71.70;;;;;;5010194;28;20100;-76
2022/09/22 03:56:49;;;;;;;0.43;0.43;;;16.80;71.70;;;;;;5026433;28;20022;-76
2022/09/22 03:59:15;;;;;;;0.40;0.40;;;16.80;71.70;;;;;;5027812;28;20032;-76
2022/09/22 04:01:41;;;;;;;0.50;0.50;;;16.80;71.70;;;;;;5026290;28;20064;-76
2022/09/22 04:04:07;;;;;;;0.45;0.45;;;16.80;71.70;;;;;;5010039;28;20064;-75
2022/09/22 04:06:33;;;;;;;0.60;0.60;;;16.80;71.70;;;;;;5026312;28;20171;-76
2022/09/22 04:09:00;;;;;;;0.40;0.40;;;16.80;71.70;;;;;;5009918;28;20041;-76
2022/09/22 04:11:26;;;;;;;0.50;0.50;;;16.80;71.70;;;;;;5026572;28;20036;-76
2022/09/22 04:13:53;;;;;;;0.70;0.70;;;16.80;71.80;;;;;;5026292;28;20032;-76
2022/09/22 04:16:19;;;;;;;0.80;0.80;;;16.80;71.80;;;;;;5026288;28;20157;-75
2022/09/22 04:18:44;;;;;;;0.90;0.90;;;16.80;71.70;;;;;;5009872;28;20486;-75
2022/09/22 04:21:10;;;;;;;0.80;0.80;;;16.80;72.00;;;;;;4993482;28;20045;-76
2022/09/22 04:23:36;;;;;;;0.77;0.77;;;16.80;71.80;;;;;;5026031;28;20037;-76
2022/09/22 04:26:03;;;;;;;0.80;0.80;;;16.80;71.80;;;;;;5009720;28;20119;-75
2022/09/22 04:28:29;;;;;;;0.80;0.80;;;16.80;71.80;;;;;;5027374;28;20033;-76
2022/09/22 04:30:55;;;;;;;0.88;0.88;;;16.80;71.80;;;;;;5027296;28;20025;-76
2022/09/22 04:33:21;;;;;;;1.10;1.10;;;16.80;71.80;;;;;;5009433;28;20057;-75
2022/09/22 04:35:47;;;;;;;;;;;16.80;71.80;;;;;;5029619;28;20079;-75
2022/09/22 04:38:13;;;;;;;0.90;0.90;;;16.80;71.80;;;;;;5030057;28;19917;-75
2022/09/22 04:40:39;;;;;;;;;;;16.80;71.90;;;;;;5030569;28;20032;-76
2022/09/22 04:43:04;;;;;;;0.80;0.80;;;16.80;71.90;;;;;;5031259;28;19995;-76
2022/09/22 04:45:30;;;;;;;0.98;0.98;;;16.80;71.80;;;;;;5029871;28;20500;-75
2022/09/22 04:47:56;;;;;;;0.98;0.98;;;16.80;71.80;;;;;;5029836;28;20390;-75
2022/09/22 04:50:22;;;;;;;0.90;0.90;;;16.80;71.80;;;;;;5030913;28;20060;-76
2022/09/22 04:52:50;;;;;;;1.02;1.02;;;16.80;71.90;;;;;;5029904;28;20033;-76
2022/09/22 04:55:17;;;;;;;4.15;3.85;;;16.80;71.90;;;;;;5029679;28;20036;-76
2022/09/22 04:57:55;;;;;;;4.10;3.80;;;16.80;71.90;;;;;;5030926;28;20487;-76
2022/09/22 05:00:22;;;;;;;4.13;3.83;;;16.80;71.90;;;;;;5031040;28;20022;-76
2022/09/22 05:02:48;;;;;;;4.30;4.00;;;16.80;71.90;;;;;;5029628;28;20132;-76
2022/09/22 05:05:14;;;;;;;4.75;4.45;;;16.80;71.90;;;;;;5029609;28;20104;-75
2022/09/22 05:07:45;;;;;;;4.22;3.92;;;16.80;71.90;;;;;;5013287;28;20037;-75
2022/09/22 05:10:12;;;;;;;4.65;4.35;;;16.80;71.90;;;;;;5029446;28;20025;-75
2022/09/22 05:12:39;;;;;;;4.32;4.03;;;16.80;72.00;;;;;;5030673;28;20378;-76
2022/09/22 05:15:06;;;;;;;4.68;4.38;;;16.80;72.00;;;;;;5012973;28;20148;-76
2022/09/22 05:17:32;;;;;;;4.68;4.38;;;16.70;72.00;;;;;;5029119;28;20489;-76
2022/09/22 05:19:58;;;;;;;4.63;4.32;;;16.70;72.00;;;;;;5013002;28;20072;-76
2022/09/22 05:22:23;;;;;;;5.10;4.80;;;16.80;72.10;;;;;;5030531;28;20389;-75
2022/09/22 05:24:49;;;;;;;4.82;4.53;;;16.70;72.00;;;;;;5030432;28;20427;-75
2022/09/22 05:27:15;;;;;;;;;;;16.70;72.00;;;;;;5030899;28;20127;-76
2022/09/22 05:29:41;;;;;;;4.57;4.28;;;16.80;72.10;;;;;;5030241;28;19924;-76
2022/09/22 05:32:07;;;;;;;5.38;5.07;;;16.70;72.00;;;;;;5030216;28;20049;-75
2022/09/22 05:34:33;;;;;;;5.03;4.72;;;16.70;72.00;;;;;;4996336;28;20552;-76
2022/09/22 05:36:58;;;;;;;5.15;4.85;;;16.70;72.00;;;;;;5030305;28;20033;-75
2022/09/22 05:39:24;;;;;;;5.63;5.32;;;16.70;72.00;;;;;;5028812;28;20040;-75
2022/09/22 05:41:50;;;;;;;5.70;5.40;;;16.70;72.10;;;;;;5028695;28;20036;-75
2022/09/22 05:44:16;;;;;;;6.63;6.22;;;16.70;72.10;;;;;;5012734;28;20393;-76
2022/09/22 05:46:41;;;;;;;6.65;6.25;;;16.70;72.20;;;;;;5028481;28;20524;-76
2022/09/22 05:49:07;;;;;;;6.57;6.18;;;16.70;72.20;;;;;;5028552;28;20069;-75
2022/09/22 05:51:33;;;;;;;6.18;5.85;;;16.70;72.20;;;;;;4995724;28;20049;-76
2022/09/22 05:53:58;;;;;;;6.65;6.25;;;16.70;72.10;;;;;;5028691;28;20087;-75
2022/09/22 05:56:24;;;;;;;7.10;6.70;;;16.70;72.20;;;;;;5011951;28;20026;-75
2022/09/22 05:58:50;;;;;;;6.93;6.53;;;16.70;72.70;;;;;;5028361;28;20351;-76
2022/09/22 06:01:15;;;;;;;6.93;6.53;;;16.80;72.20;;;;;;5028226;28;20440;-75
2022/09/22 06:03:41;;;;;;;7.20;6.80;;;16.70;72.20;;;;;;5028081;28;20041;-76
2022/09/22 06:06:07;;;;;;;7.25;6.85;;;16.80;72.20;;;;;;5011778;28;20464;-76
2022/09/22 06:08:32;;;;;;;7.43;7.03;;;16.80;72.30;;;;;;5011702;28;20397;-76
2022/09/22 06:10:58;;;;;;;7.25;6.85;;;16.80;72.30;;;;;;5028278;28;20478;-75
2022/09/22 06:13:24;;;;;;;8.35;7.95;;;16.80;72.20;;;;;;5027775;28;20056;-75
2022/09/22 06:15:50;;;;;;;7.90;7.50;;;16.80;72.30;;;;;;5011514;28;20040;-75
2022/09/22 06:18:19;;;;;;;7.85;7.45;;;16.90;72.30;;;;;;5028010;28;20030;-75
2022/09/22 06:20:45;;;;;;;8.02;7.63;;;16.90;72.30;;;;;;5027972;28;20026;-75
2022/09/22 06:23:14;;;;;;;8.05;7.65;;;16.90;72.30;;;;;;5027829;28;20029;-76
2022/09/22 06:25:41;;;;;;;7.70;7.30;;;16.90;72.30;;;;;;5027765;28;20029;-75
2022/09/22 06:28:10;;;;;;;8.43;8.02;;;16.90;72.30;;;;;;5029983;28;20053;-75
2022/09/22 06:30:39;;;;;;;8.05;7.65;;;16.90;72.30;;;;;;5027997;28;20437;-75
2022/09/22 06:33:05;;;;;;;8.35;7.95;;;16.80;72.30;;;;;;5027633;28;20021;-75
2022/09/22 06:35:36;;;;;;;;;;;16.90;72.30;;;;;;5011599;28;20028;-75
2022/09/22 06:38:04;;;;;;;7.32;6.93;;;16.90;72.40;;;;;;5011347;28;19932;-75
2022/09/22 06:40:36;;;;;;;8.05;7.65;;;16.90;72.30;;;;;;5028784;28;20409;-75
2022/09/22 06:43:14;;;;;;;9.20;8.77;;;16.90;72.30;;;;;;5028850;28;20030;-75
2022/09/22 06:45:41;;;;;;;8.95;8.55;;;16.80;72.40;;;;;;5027483;28;20563;-75
2022/09/22 06:48:09;;;;;;;9.43;8.95;;;16.90;72.40;;;;;;5011083;28;20037;-75
2022/09/22 06:50:35;;;;;;;8.95;8.55;;;16.90;72.30;;;;;;5027300;28;20161;-75
2022/09/22 06:53:05;;;;;;;9.20;8.77;;;16.90;72.30;;;;;;5027235;28;20142;-76
2022/09/22 06:55:32;;;;;;;9.82;9.32;;;16.90;72.40;;;;;;5027167;28;20497;-76
2022/09/22 06:57:58;;;;;;;;;;;16.90;72.40;;;;;;5027143;28;20033;-75
2022/09/22 07:00:30;;;;;;;9.48;9.00;;;17.00;72.50;;;;;;5028212;28;19940;-75
2022/09/22 07:03:25;;;;;;;10.60;10.10;;;17.00;72.40;;;;;;5028754;28;20024;-74
2022/09/22 07:05:59;;;;;;;10.25;9.75;;;17.00;72.40;;;;;;5014893;28;20037;-75
2022/09/22 07:08:27;;;;;;;11.00;10.50;;;17.00;72.40;;;;;;5027114;28;20029;-75
2022/09/22 07:10:54;;;;;;;12.07;11.57;;;17.00;72.50;;;;;;5027290;28;20394;-75
2022/09/22 07:13:21;;;;;;;11.77;11.27;;;17.10;72.50;;;;;;5026418;28;20025;-74
2022/09/22 07:15:46;;;;;;;11.88;11.38;;;17.10;72.50;;;;;;5029226;28;20029;-76
2022/09/22 07:18:13;;;;;;;11.90;11.40;;;17.10;72.50;;;;;;5009708;28;20393;-75
2022/09/22 07:20:39;;;;;;;11.50;11.00;;;17.00;72.40;;;;;;5025940;28;20397;-75
2022/09/22 07:23:15;;;;;;;9.75;9.25;;;17.00;72.40;;;;;;5009302;28;20070;-75
2022/09/22 07:25:40;;;;;;;8.90;8.50;;;17.00;72.30;;;;;;5010833;28;20041;-76
2022/09/22 07:28:12;;;;;;;8.98;8.57;;;16.90;72.30;;;;;;5025518;28;20091;-76
2022/09/22 07:30:39;;;;;;;9.35;8.88;;;16.80;72.30;;;;;;5009960;28;20124;-76
2022/09/22 07:33:04;;;;;;;8.95;8.55;;;16.70;72.30;;;;;;5026093;28;20025;-75
2022/09/22 07:35:30;;;;;;;8.95;8.55;;;16.70;72.40;;;;;;4993309;28;20409;-75
2022/09/22 07:37:59;;;;;;;9.20;8.77;;;16.60;72.40;;;;;;5026266;28;20101;-75
2022/09/22 07:40:25;;;;;;;8.35;7.95;;;16.70;72.50;;;;;;5027293;28;20096;-75
2022/09/22 07:42:51;;;;;;;8.88;8.48;;;16.70;72.50;;;;;;5026564;28;20589;-82
2022/09/22 07:45:16;;;;;;;10.23;9.73;;;16.70;72.50;;;;;;5026709;28;20120;-84
2022/09/22 07:50:28;;;;;;;11.90;11.40;;;16.60;72.30;;;;;;5028979;28;20087;-83
2022/09/22 07:52:55;;;;;;;12.50;11.90;;;16.50;72.40;;;;;;5026600;28;20057;-82
2022/09/22 07:55:22;;;;;;;;;;;16.40;72.60;;;;;;5029523;28;20066;-83
2022/09/22 07:57:59;;;;;;;11.38;10.88;;;16.40;72.70;;;;;;5027892;28;19909;-80
2022/09/22 08:00:28;;;;;;;11.75;11.25;;;16.40;72.80;;;;;;5029751;28;20209;-82
2022/09/22 08:02:56;;;;;;;13.45;12.85;;;16.50;72.80;;;;;;5030414;28;20052;-74
2022/09/22 08:05:23;;;;;;;12.80;12.20;;;16.60;72.90;;;;;;5027974;28;20035;-84
2022/09/22 08:07:50;;;;;;;13.77;13.18;;;16.60;72.80;;;;;;5026433;28;20025;-81
2022/09/22 08:10:17;;;;;;;13.93;13.32;;;16.60;72.60;;;;;;5029467;28;20026;-82
2022/09/22 08:12:43;;;;;;;12.95;12.35;;;16.70;72.70;;;;;;5030953;28;20028;-81
2022/09/22 08:15:10;;;;;;;13.23;12.63;;;16.70;72.60;;;;;;5028685;28;20433;-82
2022/09/22 08:17:38;;;;;;;13.50;12.90;;;16.70;72.60;;;;;;5029245;28;20033;-82
2022/09/22 08:20:06;;;;;;;13.15;12.55;;;16.70;72.60;;;;;;5027335;28;20106;-82
2022/09/22 08:22:32;;;;;;;13.07;12.48;;;16.70;72.60;;;;;;5028905;28;20030;-83
2022/09/22 08:24:57;;;;;;;13.00;12.40;;;16.80;72.70;;;;;;5028492;28;20473;-82
2022/09/22 08:27:24;;;;;;;13.20;12.60;;;16.80;72.70;;;;;;5030188;28;20036;-84
2022/09/22 08:29:50;;;;;;;12.98;12.38;;;16.90;72.70;;;;;;5029340;28;20030;-83
2022/09/22 08:32:17;;;;;;;14.00;13.40;;;16.90;72.70;;;;;;5028828;28;20041;-81
2022/09/22 08:34:44;;;;;;;14.98;14.38;;;16.90;72.70;;;;;;5028226;28;20069;-83
2022/09/22 08:37:10;;;;;;;14.30;13.70;;;16.90;72.70;;;;;;5027255;28;20026;-84
2022/09/22 08:39:36;;;;;;;17.65;16.95;;;17.00;72.70;;;;;;5011850;28;20411;-83
2022/09/22 08:42:20;;;;;;;16.95;16.25;;;17.00;72.70;;;;;;5027270;28;20033;-83
2022/09/22 08:45:39;;;;;;;17.42;16.73;;;16.90;72.70;;;;;;5028261;28;20021;-83
2022/09/22 08:54:07;;;;;;;16.77;16.08;;;16.90;73.10;;;;;;5029720;28;20105;-85
2022/09/22 08:56:40;;;;;;;17.60;16.90;;;16.90;73.10;;;;;;5029332;28;20021;-85
2022/09/22 08:59:21;;;;;;;16.95;16.25;;;17.00;73.10;;;;;;5029657;28;20025;-86
2022/09/22 09:02:15;;;;;;;16.83;16.13;;;17.00;73.00;;;;;;5029492;28;20036;-84
2022/09/22 09:04:49;;;;;;;17.33;16.63;;;17.10;73.00;;;;;;5028705;28;20026;-85
2022/09/22 09:07:57;;;;;;;16.15;15.45;;;17.10;72.90;;;;;;5029219;28;20029;-83
2022/09/22 09:10:40;;;;;;;15.15;14.50;;;17.10;72.90;;;;;;5026384;28;20225;-83
2022/09/22 09:13:32;;;;;;;14.80;14.20;;;17.20;72.90;;;;;;5028473;28;20050;-84
2022/09/22 09:16:24;;;;;;;15.85;15.15;;;17.20;72.90;;;;;;5028357;28;20523;-83
2022/09/22 09:19:01;;;;;;;17.85;17.15;;;17.20;72.90;;;;;;5027543;28;20076;-83
2022/09/22 09:21:27;;;;;;;;;;;17.10;72.80;;;;;;5031747;28;20053;-81
2022/09/22 09:23:58;;;;;;;16.98;16.27;;;17.10;72.90;;;;;;5032626;28;19911;-81
2022/09/22 09:26:25;;;;;;;17.08;16.38;;;17.00;72.90;;;;;;5032765;28;20031;-82
2022/09/22 09:28:58;;;;;;;18.23;17.50;;;17.00;73.00;;;;;;5024044;28;20040;-82
2022/09/22 09:31:50;;;;;;;18.55;17.80;;;17.00;73.00;;;;;;5013023;28;20021;-81
2022/09/22 09:34:20;;;;;;;17.63;16.92;;;17.00;73.10;;;;;;5008362;28;20107;-82
2022/09/22 09:36:59;;;;;;;17.50;16.80;;;17.10;73.10;;;;;;5013051;28;20029;-81
2022/09/22 09:39:35;;;;;;;18.35;17.60;;;17.10;73.10;;;;;;5012883;28;20467;-80
2022/09/22 09:42:07;;;;;;;19.00;18.20;;;17.10;73.00;;;;;;5012767;28;20029;-81
2022/09/22 09:44:38;;;;;;;19.00;18.20;;;17.10;73.00;;;;;;5012934;28;20021;-80
2022/09/22 09:47:26;;;;;;;19.55;18.75;;;17.20;73.00;;;;;;5011074;28;20117;-78
2022/09/22 09:49:53;;;;;;;18.40;17.65;;;17.20;73.00;;;;;;5012750;28;20050;-79
2022/09/22 09:52:20;;;;;;;17.60;16.90;;;17.20;73.00;;;;;;5012393;28;20041;-79
2022/09/22 09:54:46;;;;;;;17.58;16.88;;;17.20;73.00;;;;;;5012401;28;20026;-82
2022/09/22 09:57:15;;;;;;;17.20;16.50;;;17.30;73.50;;;;;;5011486;28;20037;-80
2022/09/22 10:02:46;;;;;;;17.75;17.05;;;17.30;73.00;;;;;;5012724;28;20069;-78
2022/09/22 10:05:15;;;;;;;17.85;17.15;;;17.30;73.00;;;;;;5012904;28;20026;-78
2022/09/22 10:07:56;;;;;;;18.05;17.33;;;17.40;73.10;;;;;;5011263;28;20034;-77
2022/09/22 10:10:28;;;;;;;17.52;16.83;;;17.40;73.10;;;;;;5011845;28;20022;-78
2022/09/22 10:13:22;;;;;;;17.05;16.35;;;17.40;73.00;;;;;;5011412;28;20057;-81
2022/09/22 10:16:00;;;;;;;16.45;15.75;;;17.40;73.00;;;;;;5009856;28;20053;-83
2022/09/22 10:18:39;;;;;;;16.58;15.88;;;17.50;73.10;;;;;;5009936;28;20030;-80
2022/09/22 10:21:13;;;;;;;16.48;15.77;;;17.50;73.10;;;;;;5010009;28;20026;-79
2022/09/22 10:23:39;;;;;;;16.45;15.75;;;17.50;73.10;;;;;;5011401;28;20526;-80
2022/09/22 10:26:22;;;;;;;17.73;17.02;;;17.60;73.20;;;;;;5010117;28;20041;-79
2022/09/22 10:29:16;;;;;;;17.23;16.52;;;17.70;73.20;;;;;;5010450;28;20026;-81
2022/09/22 10:32:11;;;;;;;17.08;16.38;;;17.70;73.10;;;;;;5009690;28;20443;-78
2022/09/22 10:34:43;;;;;;;16.48;15.77;;;17.80;73.10;;;;;;5009716;28;20033;-78
2022/09/22 10:37:11;;;;;;;16.45;15.75;;;17.80;73.00;;;;;;5006888;28;20022;-76
2022/09/22 10:39:57;;;;;;;14.75;14.15;;;17.80;73.00;;;;;;5010292;28;20110;-79
2022/09/22 11:24:01;;;;;;;7.72;7.32;;;16.20;74.30;;;;;;5109242;27;20384;-73
2022/09/22 11:26:54;;;;;;;9.63;9.13;;;17.80;75.00;;;;;;5109748;28;20032;-74
2022/09/22 11:29:28;;;;;;;10.43;9.93;;;17.90;74.60;;;;;;5108855;28;20036;-74
2022/09/22 11:32:12;;;;;;;11.30;10.80;;;17.90;74.30;;;;;;5109562;28;20099;-73
2022/09/22 11:34:44;;;;;;;12.48;11.90;;;17.80;74.00;;;;;;5109086;28;20076;-74
2022/09/22 11:37:24;;;;;;;13.38;12.77;;;17.70;74.10;;;;;;5109664;28;20031;-74
2022/09/22 11:40:27;;;;;;;14.85;14.25;;;17.60;74.20;;;;;;5109951;28;20051;-72
2022/09/22 11:43:14;;;;;;;16.65;15.95;;;17.60;74.20;;;;;;5108601;28;20023;-70
2022/09/22 11:46:01;;;;;;;16.50;15.80;;;17.60;74.10;;;;;;5109359;28;20031;-74
2022/09/22 11:49:05;;;;;;;16.40;15.70;;;17.60;74.60;;;;;;5109013;28;20020;-74
2022/09/22 11:51:39;;;;;;;17.08;16.38;;;17.50;74.00;;;;;;5107533;28;20038;-73
2022/09/22 11:54:29;;;;;;;17.00;16.30;;;17.40;74.00;;;;;;5108249;28;20051;-74
2022/09/22 11:57:03;;;;;;;16.70;16.00;;;17.40;74.10;;;;;;5107881;28;20812;-74
2022/09/22 11:59:49;;;;;;;16.90;16.20;;;17.30;74.20;;;;;;5109042;28;20027;-76
2022/09/22 12:02:34;;;;;;;16.52;15.82;;;17.20;74.20;;;;;;5108530;28;20024;-77
2022/09/22 12:05:25;;;;;;;16.15;15.45;;;17.20;74.30;;;;;;5109574;28;20036;-76
2022/09/22 12:08:10;;;;;;;17.50;16.80;;;17.30;74.20;;;;;;5109137;28;20016;-77
2022/09/22 12:10:43;;;;;;;18.08;17.35;;;17.30;74.10;;;;;;5108997;28;20098;-76
2022/09/22 12:13:20;;;;;;;19.00;18.20;;;17.30;74.10;;;;;;5109595;28;20449;-75
2022/09/22 12:16:00;;;;;;;18.98;18.17;;;17.30;74.10;;;;;;5109037;28;20040;-75
2022/09/22 12:18:47;;;;;;;19.20;18.40;;;17.40;74.20;;;;;;5108936;28;20142;-74
2022/09/22 12:21:29;;;;;;;19.50;18.70;;;17.30;74.10;;;;;;5107183;28;20063;-76
2022/09/22 12:23:59;;;;;;;19.75;18.95;;;17.40;74.00;;;;;;5097328;28;20814;-75
2022/09/22 12:26:30;;;;;;;19.88;19.08;;;17.50;74.10;;;;;;5094120;28;20103;-75
2022/09/22 12:28:57;;;;;;;19.83;19.02;;;17.40;74.00;;;;;;5094921;28;20035;-72
2022/09/22 12:31:33;;;;;;;19.50;18.70;;;17.50;74.00;;;;;;5092856;28;20123;-76
2022/09/22 12:34:01;;;;;;;19.92;19.13;;;17.50;74.00;;;;;;5093449;28;20027;-77
2022/09/22 12:36:38;;;;;;;21.42;20.58;;;17.60;74.10;;;;;;5076464;28;20090;-78
2022/09/22 12:39:29;;;;;;;20.60;19.80;;;17.70;74.20;;;;;;5093569;28;20032;-76
2022/09/22 12:42:04;;;;;;;20.48;19.67;;;17.80;74.10;;;;;;5094481;28;20405;-75
2022/09/22 12:44:33;;;;;;;19.85;19.05;;;17.90;74.10;;;;;;5093340;28;20047;-76
2022/09/22 12:47:06;;;;;;;20.55;19.75;;;18.10;74.10;;;;;;5093872;28;20676;-75
2022/09/22 12:49:32;;;;;;;19.52;18.73;;;18.20;74.10;;;;;;5093702;28;20016;-75
2022/09/22 12:51:58;;;;;;;;;;;18.30;74.50;;;;;;5095512;28;20046;-80
2022/09/22 12:54:25;;;;;;;18.45;17.70;;;18.40;74.30;;;;;;5093088;28;20369;-75
2022/09/22 12:57:05;;;;;;;17.58;16.88;;;18.50;73.60;;;;;;5093224;28;20122;-75
2022/09/22 12:59:37;;;;;;;16.05;15.35;;;18.50;73.50;;;;;;5093131;28;20702;-72
2022/09/22 13:02:16;;;;;;;17.13;16.42;;;18.60;73.60;;;;;;5092725;28;20074;-74
2022/09/22 13:04:54;;;;;;;18.15;17.42;;;18.70;73.90;;;;;;5092102;28;20028;-77
2022/09/22 13:07:40;;;;;;;16.25;15.55;;;19.00;74.20;;;;;;5094395;28;20099;-75
2022/09/22 13:10:21;;;;;;;13.73;13.13;;;19.40;74.00;;;;;;5094403;28;20031;-76
2022/09/22 13:13:02;;;;;;;10.95;10.45;;;19.60;73.80;;;;;;5093667;28;20836;-78
2022/09/22 13:15:49;;;;;;;10.32;9.82;;;19.60;73.70;;;;;;5093731;28;20069;-76
2022/09/22 13:18:53;;;;;;;7.53;7.13;;;19.70;73.70;;;;;;5092731;28;20122;-74
2022/09/22 13:21:24;;;;;;;5.65;5.35;;;19.70;73.60;;;;;;5089346;28;20485;-78
2022/09/22 13:23:50;;;;;;;5.70;5.40;;;19.60;73.50;;;;;;5094124;28;20024;-74
2022/09/22 13:26:37;;;;;;;4.78;4.47;;;19.40;73.50;;;;;;5092795;28;20664;-73
2022/09/22 13:29:05;;;;;;;;;;;19.20;73.80;;;;;;5093483;28;20024;-73
2022/09/22 13:31:49;;;;;;;5.03;4.72;;;19.20;73.90;;;;;;5091592;28;19956;-74
2022/09/22 13:34:34;;;;;;;5.35;5.05;;;19.10;74.10;;;;;;5091157;28;20028;-72
2022/09/22 13:37:18;;;;;;;4.82;4.53;;;18.90;74.20;;;;;;5091930;28;20044;-73
2022/09/22 13:39:48;;;;;;;4.60;4.30;;;19.00;74.40;;;;;;5093032;28;20092;-73
2022/09/22 13:42:23;;;;;;;4.80;4.50;;;19.00;74.40;;;;;;5092970;28;20025;-72
2022/09/22 13:45:05;;;;;;;4.75;4.45;;;19.10;74.60;;;;;;5091601;28;20631;-73
2022/09/22 13:47:33;;;;;;;4.50;4.20;;;19.20;75.10;;;;;;5090971;28;20089;-73
2022/09/22 13:50:07;;;;;;;5.03;4.72;;;19.50;74.70;;;;;;5093063;28;20016;-73
2022/09/22 13:52:35;;;;;;;5.00;4.70;;;19.80;74.70;;;;;;5091903;28;20059;-73
2022/09/22 13:55:13;;;;;;;4.63;4.32;;;20.10;74.60;;;;;;5091770;28;20038;-73
2022/09/22 13:57:41;;;;;;;2.50;2.30;;;20.40;74.20;;;;;;5090631;28;20026;-73
2022/09/22 14:00:18;;;;;;;1.80;1.70;;;20.50;73.90;;;;;;5092261;28;20381;-74
2022/09/22 14:02:44;;;;;;;1.40;1.30;;;20.60;73.80;;;;;;5089404;28;20056;-74
2022/09/22 14:05:17;;;;;;;;;;;20.50;73.80;;;;;;5081950;28;20043;-73